Time;durP1;ratioP1;P1;durP2;ratioP2;P2;SDS_P1;SDS_P2;PMS_P1;PMS_P2;Temp;Humidity;BMP_temperature;BMP_pressure;BME280_temperature;BME280_humidity;BME280_pressure;Samples;Min_cycle;Max_cycle;Signal;HPM_P1;HPM_P2
2021/08/05 00:01:50;;;;;;;1.63;1.52;;;;;;;19.24;69.11;97677.09;6125106;23;20009;-68
2021/08/05 00:04:16;;;;;;;0.20;0.20;;;;;;;19.32;68.80;97686.63;6125120;23;20014;-67
2021/08/05 00:06:42;;;;;;;1.60;0.20;;;;;;;19.42;68.70;97685.53;6124965;23;20014;-68
2021/08/05 00:09:08;;;;;;;2.58;0.47;;;;;;;19.51;68.47;97694.72;6123410;23;20025;-68
2021/08/05 00:11:33;;;;;;;2.92;1.13;;;;;;;19.57;68.29;97700.97;6126172;23;20014;-68
2021/08/05 00:13:59;;;;;;;1.17;0.60;;;;;;;19.63;68.25;97684.97;6126810;23;20348;-68
2021/08/05 00:16:25;;;;;;;0.68;0.68;;;;;;;19.69;67.87;97689.22;6127074;23;20022;-68
2021/08/05 00:18:51;;;;;;;1.02;0.68;;;;;;;19.77;67.93;97692.06;6126554;23;20048;-69
2021/08/05 00:21:18;;;;;;;0.30;0.30;;;;;;;19.84;67.81;97686.03;6126617;23;20467;-67
2021/08/05 00:23:44;;;;;;;0.73;0.73;;;;;;;19.89;67.72;97688.66;6126430;23;20016;-71
2021/08/05 00:26:11;;;;;;;1.00;0.85;;;;;;;19.95;67.82;97695.72;6126494;23;20336;-66
2021/08/05 00:28:37;;;;;;;0.77;0.68;;;;;;;20.06;67.38;97687.06;6126631;23;20082;-67
2021/08/05 00:31:04;;;;;;;12.60;0.90;;;;;;;20.15;67.19;97684.28;6126364;23;20014;-67
2021/08/05 00:33:30;;;;;;;1.48;0.85;;;;;;;20.27;67.14;97692.81;6126386;23;20013;-67
2021/08/05 00:35:56;;;;;;;0.68;0.68;;;;;;;20.40;66.63;97702.19;6126289;23;20024;-67
2021/08/05 00:38:21;;;;;;;0.52;0.52;;;;;;;20.51;66.50;97709.09;6126980;23;20038;-68
2021/08/05 00:40:47;;;;;;;0.43;0.22;;;;;;;20.59;66.43;97708.25;6126013;23;20014;-69
2021/08/05 00:43:13;;;;;;;1.00;0.82;;;;;;;20.64;66.28;97708.09;6100784;23;20013;-68
2021/08/05 00:45:39;;;;;;;0.50;0.47;;;;;;;20.68;66.23;97694.34;6126240;23;20010;-67
2021/08/05 00:48:05;;;;;;;0.25;0.25;;;;;;;20.72;66.53;97694.53;6126655;23;20009;-67
2021/08/05 00:50:32;;;;;;;0.43;0.43;;;;;;;20.74;66.57;97683.84;6126604;23;20061;-67
2021/08/05 00:52:59;;;;;;;0.47;0.47;;;;;;;20.79;66.55;97681.72;6126373;23;20010;-68
2021/08/05 00:55:26;;;;;;;0.70;0.70;;;;;;;21.03;66.01;97674.78;6126260;23;20153;-69
2021/08/05 00:57:53;;;;;;;0.45;0.30;;;;;;;21.18;65.46;97685.41;6126352;23;20016;-65
2021/08/05 01:00:19;;;;;;;0.80;0.80;;;;;;;21.08;66.01;97682.16;6126597;23;20014;-66
2021/08/05 01:03:00;;;;;;;1.13;0.65;;;;;;;20.92;66.14;97682.69;6126224;23;20014;-68
2021/08/05 01:05:29;;;;;;;1.00;0.35;;;;;;;20.76;66.92;97687.94;6126293;23;20073;-66
2021/08/05 01:08:06;;;;;;;3.40;0.90;;;;;;;20.61;66.95;97689.25;6126568;23;20013;-68
2021/08/05 01:10:46;;;;;;;0.35;0.35;;;;;;;20.53;67.25;97695.63;6125613;23;20053;-69
2021/08/05 01:13:17;;;;;;;2.00;0.77;;;;;;;20.53;67.17;97697.63;6126367;23;20329;-68
2021/08/05 01:15:44;;;;;;;0.30;0.30;;;;;;;20.56;67.09;97700.56;6126127;23;20013;-67
2021/08/05 01:18:20;;;;;;;1.42;1.02;;;;;;;20.69;66.88;97695.19;6126135;23;20022;-66
2021/08/05 01:20:46;;;;;;;1.02;0.95;;;;;;;20.92;66.11;97695.78;6125659;23;20154;-66
2021/08/05 01:23:39;;;;;;;0.65;0.65;;;;;;;21.28;65.25;97692.59;6137336;23;20010;-67
2021/08/05 01:26:16;;;;;;;0.70;0.70;;;;;;;21.51;64.56;97700.78;6104973;23;20029;-67
2021/08/05 01:28:45;;;;;;;0.90;0.57;;;;;;;21.77;64.00;97689.47;6128160;23;20249;-68
2021/08/05 01:31:12;;;;;;;0.90;0.35;;;;;;;22.05;63.66;97684.25;6126001;23;20014;-67
2021/08/05 01:33:39;;;;;;;0.43;0.43;;;;;;;22.34;62.97;97692.97;6126073;23;20494;-68
2021/08/05 01:36:05;;;;;;;0.52;0.52;;;;;;;22.63;62.03;97680.91;6125895;23;20017;-67
2021/08/05 01:38:34;;;;;;;0.70;0.40;;;;;;;22.77;61.85;97677.00;6125741;23;20009;-67
2021/08/05 01:41:03;;;;;;;0.55;0.55;;;;;;;22.97;61.50;97673.34;6125275;23;20077;-67
2021/08/05 01:43:31;;;;;;;0.98;0.95;;;;;;;23.24;61.02;97662.69;6125540;23;20020;-74
2021/08/05 01:45:58;;;;;;;1.10;0.68;;;;;;;24.88;57.10;97678.69;6126145;23;20451;-69
2021/08/05 01:48:24;;;;;;;0.20;0.20;;;;;;;26.08;54.78;97683.50;6125739;23;20088;-68
2021/08/05 01:50:52;;;;;;;0.52;0.52;;;;;;;27.15;53.15;97676.56;6125441;23;20009;-67
2021/08/05 01:53:18;;;;;;;0.20;0.20;;;;;;;28.21;51.27;97680.84;6125923;23;20018;-68
2021/08/05 01:55:46;;;;;;;0.43;0.43;;;;;;;28.80;50.79;97683.31;6125969;23;20037;-67
2021/08/05 01:58:12;;;;;;;0.47;0.47;;;;;;;29.22;50.30;97682.19;6125958;23;20025;-69
2021/08/05 02:00:39;;;;;;;2.10;1.05;;;;;;;30.17;48.60;97691.19;6100095;23;20406;-68
2021/08/05 02:03:09;;;;;;;0.10;0.10;;;;;;;31.11;47.40;97683.25;6125811;23;20013;-66
2021/08/05 02:06:17;;;;;;;0.20;0.20;;;;;;;31.82;46.89;97678.94;6125588;23;20021;-67
2021/08/05 02:08:53;;;;;;;0.10;0.10;;;;;;;32.28;46.32;97677.31;6125713;23;20018;-66
2021/08/05 02:11:27;;;;;;;0.30;0.30;;;;;;;32.06;47.08;97687.84;6124788;23;20065;-66
2021/08/05 02:13:55;;;;;;;0.10;0.10;;;;;;;31.23;49.03;97690.56;6125806;23;20014;-65
2021/08/05 02:16:25;;;;;;;0.68;0.68;;;;;;;31.49;48.75;97685.75;6125480;23;20544;-67
2021/08/05 02:18:52;;;;;;;0.15;0.15;;;;;;;32.31;47.19;97685.00;6125381;23;20034;-68
2021/08/05 02:21:21;;;;;;;0.35;0.35;;;;;;;32.54;46.89;97689.41;6100324;23;20002;-68
2021/08/05 02:23:49;;;;;;;0.30;0.30;;;;;;;32.09;47.94;97682.16;6125622;23;20013;-67
2021/08/05 02:26:15;;;;;;;0.30;0.30;;;;;;;31.28;49.82;97690.16;6125328;23;20465;-67
2021/08/05 02:28:41;;;;;;;0.85;0.50;;;;;;;30.15;52.14;97690.78;6126046;23;20029;-68
2021/08/05 02:31:08;;;;;;;0.70;0.70;;;;;;;29.76;52.86;97699.72;6125662;23;20010;-68
2021/08/05 02:33:35;;;;;;;0.43;0.43;;;;;;;30.39;51.61;97699.81;6126141;23;20551;-67
2021/08/05 02:36:02;;;;;;;0.40;0.40;;;;;;;31.79;48.69;97705.28;6125385;23;20459;-67
2021/08/05 02:38:28;;;;;;;0.10;0.10;;;;;;;33.20;45.66;97703.00;6099743;23;20014;-68
2021/08/05 02:40:55;;;;;;;0.10;0.10;;;;;;;34.61;43.52;97704.88;6124877;23;20066;-68
2021/08/05 02:43:25;;;;;;;0.25;0.20;;;;;;;35.83;41.81;97703.34;6125173;23;20021;-68
2021/08/05 02:45:51;;;;;;;0.30;0.30;;;;;;;36.43;40.83;97717.06;6125466;23;20017;-68
2021/08/05 02:48:17;;;;;;;0.40;0.40;;;;;;;36.70;40.70;97710.44;6125250;23;20493;-68
2021/08/05 02:50:44;;;;;;;0.82;0.80;;;;;;;37.20;40.50;97709.44;6125523;23;20010;-68
2021/08/05 02:53:11;;;;;;;1.95;0.30;;;;;;;37.74;39.51;97708.28;6125252;23;20014;-66
2021/08/05 02:55:37;;;;;;;0.20;0.20;;;;;;;38.24;39.41;97712.00;6125045;23;20042;-67
2021/08/05 02:58:04;;;;;;;0.20;0.20;;;;;;;38.66;38.91;97703.53;6125209;23;20014;-68
2021/08/05 03:00:30;;;;;;;0.20;0.20;;;;;;;38.86;38.79;97705.47;6125716;23;20350;-69
2021/08/05 03:02:55;;;;;;;0.32;0.15;;;;;;;39.28;38.48;97714.09;6125321;23;20375;-68
2021/08/05 03:05:21;;;;;;;0.10;0.10;;;;;;;39.67;38.07;97717.88;6099415;23;20018;-68
2021/08/05 03:07:47;;;;;;;0.20;0.20;;;;;;;39.94;37.90;97707.97;6125571;23;20097;-71
2021/08/05 03:10:14;;;;;;;0.35;0.35;;;;;;;40.29;37.57;97699.44;6124705;23;20431;-69
2021/08/05 03:12:40;;;;;;;0.20;0.20;;;;;;;40.54;37.21;97703.56;6125022;23;20017;-69
2021/08/05 03:15:07;;;;;;;0.20;0.20;;;;;;;40.98;36.97;97703.63;6124965;23;20381;-69
2021/08/05 03:17:33;;;;;;;0.20;0.20;;;;;;;41.43;36.06;97701.53;6124780;23;20014;-69
2021/08/05 03:19:59;;;;;;;0.10;0.10;;;;;;;42.43;34.98;97698.72;6125694;23;20078;-69
2021/08/05 03:22:25;;;;;;;0.10;0.10;;;;;;;43.54;33.33;97692.91;6124649;23;20018;-69
2021/08/05 03:24:50;;;;;;;0.77;0.32;;;;;;;43.91;33.67;97692.81;6125231;23;20038;-70
2021/08/05 03:27:16;;;;;;;0.35;0.35;;;;;;;44.26;33.41;97687.31;6140220;23;20041;-69
2021/08/05 03:29:42;;;;;;;0.20;0.20;;;;;;;44.78;32.82;97695.00;6131858;23;20017;-69
2021/08/05 03:32:08;;;;;;;6.25;1.08;;;;;;;45.05;32.73;97685.28;6125310;23;20092;-68
2021/08/05 03:34:34;;;;;;;0.28;0.28;;;;;;;45.33;32.59;97687.88;6125228;23;20010;-69
2021/08/05 03:36:59;;;;;;;0.45;0.10;;;;;;;45.67;32.08;97696.41;6125254;23;20021;-70
2021/08/05 03:39:25;;;;;;;0.85;0.63;;;;;;;45.65;32.08;97699.81;6125365;23;20039;-70
2021/08/05 03:41:51;;;;;;;0.10;0.10;;;;;;;45.79;32.42;97698.16;6124600;23;20010;-69
2021/08/05 03:44:17;;;;;;;0.52;0.52;;;;;;;46.06;31.87;97696.22;6126166;23;20043;-70
2021/08/05 03:46:43;;;;;;;0.20;0.20;;;;;;;45.17;32.90;97694.97;6127001;23;20014;-70
2021/08/05 03:49:09;;;;;;;0.20;0.20;;;;;;;43.30;35.55;97687.03;6127084;23;20010;-70
2021/08/05 03:51:35;;;;;;;0.38;0.28;;;;;;;41.97;37.61;97684.97;6126768;23;20025;-73
2021/08/05 03:54:01;;;;;;;0.20;0.20;;;;;;;41.10;38.70;97665.31;6126606;23;20110;-69
2021/08/05 03:56:27;;;;;;;1.00;0.40;;;;;;;40.57;39.08;97674.66;6127140;23;20033;-72
2021/08/05 03:58:53;;;;;;;0.30;0.22;;;;;;;39.91;39.75;97674.41;6127059;23;20010;-69
2021/08/05 04:01:18;;;;;;;0.10;0.10;;;;;;;39.32;40.27;97671.72;6126511;23;20350;-69
2021/08/05 04:03:44;;;;;;;0.20;0.20;;;;;;;38.86;40.76;97671.03;6127193;23;20014;-67
2021/08/05 04:06:10;;;;;;;0.30;0.30;;;;;;;39.75;38.57;97667.53;6126568;23;20014;-68
2021/08/05 04:08:37;;;;;;;0.30;0.30;;;;;;;41.22;35.97;97666.50;6126279;23;20471;-69
2021/08/05 04:11:03;;;;;;;0.10;0.10;;;;;;;42.65;33.55;97672.63;6126499;23;20058;-70
2021/08/05 04:13:29;;;;;;;0.20;0.20;;;;;;;43.60;32.42;97679.41;6126890;23;20021;-69
2021/08/05 04:15:55;;;;;;;0.57;0.32;;;;;;;43.02;33.50;97675.53;6127093;23;20436;-70
2021/08/05 04:18:21;;;;;;;0.30;0.30;;;;;;;41.89;35.20;97669.25;6127001;23;20009;-70
2021/08/05 04:20:46;;;;;;;0.32;0.32;;;;;;;40.56;36.81;97678.78;6126809;23;20108;-70
2021/08/05 04:23:12;;;;;;;0.55;0.47;;;;;;;39.12;39.06;97665.38;6126558;23;20010;-70
2021/08/05 04:25:38;;;;;;;0.20;0.20;;;;;;;37.76;41.01;97657.09;6127000;23;20018;-70
2021/08/05 04:28:04;;;;;;;0.32;0.32;;;;;;;36.72;42.41;97657.28;6127153;23;20010;-69
2021/08/05 04:30:29;;;;;;;0.30;0.30;;;;;;;37.22;40.70;97671.78;6100847;23;20069;-69
2021/08/05 04:32:55;;;;;;;0.77;0.32;;;;;;;36.81;41.10;97662.44;6126935;23;20092;-74
2021/08/05 04:35:21;;;;;;;0.40;0.40;;;;;;;36.11;42.07;97664.91;6126787;23;20057;-72
2021/08/05 04:37:56;;;;;;;0.80;0.30;;;;;;;35.27;43.09;97658.81;6126807;23;20014;-71
2021/08/05 04:40:24;;;;;;;1.40;0.88;;;;;;;34.42;44.12;97650.09;6126155;23;20009;-70
2021/08/05 04:42:50;;;;;;;0.43;0.40;;;;;;;33.82;44.51;97655.09;6126674;23;20010;-71
2021/08/05 04:45:17;;;;;;;2.83;0.30;;;;;;;33.38;44.81;97648.91;6100481;23;20036;-69
2021/08/05 04:47:58;;;;;;;0.30;0.30;;;;;;;33.01;45.04;97645.44;6127001;23;20017;-69
2021/08/05 04:50:28;;;;;;;1.17;1.00;;;;;;;32.59;45.27;97630.13;6126412;23;20061;-69
2021/08/05 04:52:54;;;;;;;0.22;0.22;;;;;;;32.27;45.00;97631.06;6126355;23;20010;-69
2021/08/05 04:55:21;;;;;;;1.10;0.43;;;;;;;32.13;44.77;97637.56;6125972;23;20487;-69
2021/08/05 04:57:57;;;;;;;0.60;0.60;;;;;;;31.93;44.89;97625.78;6126791;23;20013;-71
2021/08/05 05:00:30;;;;;;;0.17;0.17;;;;;;;31.78;44.67;97625.00;6126308;23;20017;-69
2021/08/05 05:02:57;;;;;;;0.28;0.28;;;;;;;31.69;44.51;97624.59;6126149;23;20439;-70
2021/08/05 05:05:23;;;;;;;0.13;0.13;;;;;;;31.78;43.78;97621.34;6126088;23;20093;-71
2021/08/05 05:07:49;;;;;;;0.40;0.28;;;;;;;32.12;43.07;97623.78;6126494;23;20347;-70
2021/08/05 05:10:17;;;;;;;0.17;0.17;;;;;;;32.67;41.61;97630.94;6125453;23;20028;-70
2021/08/05 05:12:43;;;;;;;0.20;0.20;;;;;;;32.83;41.55;97634.16;6125994;23;20416;-68
2021/08/05 05:15:10;;;;;;;0.30;0.30;;;;;;;32.89;41.18;97636.53;6126068;23;20501;-70
2021/08/05 05:17:36;;;;;;;0.70;0.70;;;;;;;32.72;41.72;97632.56;6126286;23;20020;-69
2021/08/05 05:20:05;;;;;;;0.10;0.10;;;;;;;32.63;41.43;97630.13;6126633;23;20347;-69
2021/08/05 05:22:31;;;;;;;0.32;0.32;;;;;;;32.53;41.58;97631.00;6126100;23;20354;-70
2021/08/05 05:24:57;;;;;;;0.30;0.30;;;;;;;32.29;41.87;97622.13;6123469;23;20018;-70
2021/08/05 05:27:23;;;;;;;0.20;0.20;;;;;;;32.00;42.31;97629.84;6125832;23;20030;-69
2021/08/05 05:29:50;;;;;;;0.22;0.22;;;;;;;31.67;42.86;97644.06;6142388;23;20017;-70
2021/08/05 05:32:16;;;;;;;0.60;0.30;;;;;;;31.19;43.65;97644.38;6130844;23;20061;-68
2021/08/05 05:34:41;;;;;;;0.50;0.50;;;;;;;30.66;44.68;97652.25;6124807;23;20018;-69
2021/08/05 05:37:07;;;;;;;0.40;0.40;;;;;;;30.10;45.45;97653.53;6124513;23;20022;-69
2021/08/05 05:39:33;;;;;;;0.32;0.28;;;;;;;29.58;46.39;97654.28;6098829;23;20096;-70
2021/08/05 05:41:59;;;;;;;0.13;0.13;;;;;;;29.32;46.45;97658.06;6124432;23;20016;-69
2021/08/05 05:44:24;;;;;;;0.30;0.30;;;;;;;29.06;46.58;97656.94;6124426;23;20010;-69
2021/08/05 05:46:50;;;;;;;0.17;0.17;;;;;;;28.83;46.87;97659.94;6124848;23;20018;-69
2021/08/05 05:49:16;;;;;;;0.20;0.20;;;;;;;28.66;47.02;97658.50;6124563;23;20006;-68
2021/08/05 05:51:41;;;;;;;0.57;0.57;;;;;;;28.53;46.86;97654.25;6124613;23;20024;-69
2021/08/05 05:54:07;;;;;;;0.40;0.40;;;;;;;28.48;46.76;97649.75;6124544;23;20348;-70
2021/08/05 05:56:33;;;;;;;0.68;0.68;;;;;;;28.51;46.64;97637.69;6124597;23;20018;-69
2021/08/05 05:58:59;;;;;;;0.13;0.13;;;;;;;28.57;46.58;97629.72;6124692;23;20035;-68
2021/08/05 06:01:25;;;;;;;1.35;0.30;;;;;;;28.55;46.28;97615.97;6124445;23;20010;-69
2021/08/05 06:03:50;;;;;;;0.10;0.10;;;;;;;28.60;46.05;97607.19;6124634;23;20016;-70
2021/08/05 06:06:16;;;;;;;0.40;0.40;;;;;;;28.84;45.53;97588.09;6124256;23;20014;-71
2021/08/05 06:08:42;;;;;;;0.20;0.20;;;;;;;29.02;45.13;97582.66;6124291;23;20431;-71
2021/08/05 06:11:07;;;;;;;0.43;0.43;;;;;;;29.16;44.83;97576.31;6123789;23;20041;-69
2021/08/05 06:13:33;;;;;;;0.55;0.55;;;;;;;29.18;44.95;97556.94;6123164;23;20014;-68
2021/08/05 06:15:59;;;;;;;1.45;1.25;;;;;;;29.18;44.98;97551.28;6122609;23;20097;-69
2021/08/05 06:18:24;;;;;;;0.10;0.10;;;;;;;29.18;44.93;97539.97;6123560;23;20451;-70
2021/08/05 06:20:50;;;;;;;0.10;0.10;;;;;;;29.36;44.65;97546.66;6123694;23;20006;-69
2021/08/05 06:23:16;;;;;;;0.20;0.20;;;;;;;29.61;43.83;97557.34;6098564;23;20351;-69
2021/08/05 06:25:42;;;;;;;0.22;0.22;;;;;;;29.87;43.60;97564.84;6124277;23;20009;-69
2021/08/05 06:28:07;;;;;;;0.75;0.40;;;;;;;30.03;43.30;97553.19;6123977;23;20016;-70
2021/08/05 06:30:33;;;;;;;0.20;0.20;;;;;;;30.19;43.08;97546.41;6124195;23;20014;-69
2021/08/05 06:32:59;;;;;;;2.40;0.30;;;;;;;30.14;43.20;97538.28;6098163;23;20014;-68
2021/08/05 06:35:25;;;;;;;0.22;0.22;;;;;;;30.04;43.23;97535.00;6123952;23;20010;-69
2021/08/05 06:37:51;;;;;;;0.13;0.13;;;;;;;30.08;43.22;97546.34;6124133;23;20010;-70
2021/08/05 06:40:18;;;;;;;0.73;0.40;;;;;;;30.13;42.99;97531.81;6123463;23;20006;-70
2021/08/05 06:42:44;;;;;;;0.20;0.20;;;;;;;30.32;42.88;97525.03;6123937;23;20050;-69
2021/08/05 06:45:12;;;;;;;0.57;0.57;;;;;;;30.49;42.61;97529.19;6124440;23;20013;-70
2021/08/05 06:47:41;;;;;;;0.63;0.63;;;;;;;30.63;42.18;97511.41;6123966;23;20006;-70
2021/08/05 06:50:09;;;;;;;0.20;0.20;;;;;;;30.63;42.42;97505.75;6123733;23;20448;-70
2021/08/05 06:52:35;;;;;;;0.35;0.35;;;;;;;30.66;42.32;97518.28;6123964;23;20093;-70
2021/08/05 06:55:00;;;;;;;0.52;0.50;;;;;;;30.62;42.39;97508.97;6124216;23;20037;-70
2021/08/05 06:57:26;;;;;;;0.20;0.20;;;;;;;30.43;42.75;97504.47;6123692;23;20020;-70
2021/08/05 06:59:52;;;;;;;0.65;0.38;;;;;;;30.15;43.38;97495.44;6124043;23;20040;-70
2021/08/05 07:02:17;;;;;;;0.35;0.20;;;;;;;30.15;43.41;97500.28;6123255;23;20031;-71
2021/08/05 07:04:43;;;;;;;0.65;0.65;;;;;;;30.28;43.25;97490.22;6124211;23;20010;-70
2021/08/05 07:07:09;;;;;;;0.28;0.28;;;;;;;30.33;43.14;97486.19;6123318;23;20045;-69
2021/08/05 07:09:35;;;;;;;0.10;0.10;;;;;;;30.35;43.00;97490.25;6123422;23;20072;-69
2021/08/05 07:12:00;;;;;;;0.45;0.45;;;;;;;30.44;42.84;97491.94;6125401;23;20089;-70
2021/08/05 07:14:26;;;;;;;0.25;0.25;;;;;;;30.50;42.60;97496.00;6125494;23;20018;-69
2021/08/05 07:16:52;;;;;;;0.15;0.15;;;;;;;30.66;42.44;97501.31;6125558;23;20022;-71
2021/08/05 07:19:18;;;;;;;0.20;0.20;;;;;;;30.83;42.50;97499.69;6100929;23;20443;-70
2021/08/05 07:21:43;;;;;;;0.10;0.10;;;;;;;30.85;42.35;97498.09;6127234;23;20021;-70
2021/08/05 07:24:12;;;;;;;0.22;0.22;;;;;;;30.73;42.69;97501.31;6127239;23;20037;-68
2021/08/05 07:26:38;;;;;;;0.40;0.40;;;;;;;30.60;43.08;97505.75;6127514;23;20068;-71
2021/08/05 07:29:03;;;;;;;0.40;0.20;;;;;;;30.57;43.15;97510.97;6133710;23;20435;-70
2021/08/05 07:31:29;;;;;;;0.30;0.30;;;;;;;30.60;43.30;97508.56;6141882;23;20010;-71
2021/08/05 07:33:55;;;;;;;0.35;0.35;;;;;;;30.79;42.83;97515.91;6127867;23;20350;-68
2021/08/05 07:36:22;;;;;;;0.08;0.08;;;;;;;31.01;42.61;97517.56;6101239;23;20098;-69
2021/08/05 07:38:48;;;;;;;0.20;0.20;;;;;;;31.12;42.30;97519.59;6127230;23;20013;-69
2021/08/05 07:41:15;;;;;;;0.80;0.35;;;;;;;31.23;42.14;97523.28;6126603;23;20346;-70
2021/08/05 07:43:40;;;;;;;0.10;0.10;;;;;;;31.38;41.90;97521.25;6127096;23;20010;-70
2021/08/05 07:46:06;;;;;;;0.20;0.20;;;;;;;31.50;41.93;97525.69;6126885;23;20140;-71
2021/08/05 07:48:32;;;;;;;0.17;0.17;;;;;;;31.50;42.04;97505.84;6127417;23;20013;-72
2021/08/05 07:50:58;;;;;;;0.28;0.28;;;;;;;31.48;42.31;97511.09;6126983;23;20013;-71
2021/08/05 07:53:24;;;;;;;1.85;0.52;;;;;;;31.41;42.52;97500.56;6100866;23;20481;-71
2021/08/05 07:55:50;;;;;;;0.20;0.20;;;;;;;31.28;42.52;97503.00;6124909;23;20009;-71
2021/08/05 07:58:15;;;;;;;0.35;0.20;;;;;;;31.23;42.68;97501.38;6124647;23;20096;-73
2021/08/05 08:00:41;;;;;;;0.30;0.30;;;;;;;31.22;42.84;97501.78;6124203;23;20013;-74
2021/08/05 08:03:08;;;;;;;0.57;0.50;;;;;;;31.16;43.23;97500.59;6124239;23;20002;-69
2021/08/05 08:05:34;;;;;;;0.55;0.43;;;;;;;31.03;43.32;97491.66;6124385;23;20017;-69
2021/08/05 08:08:00;;;;;;;0.60;0.50;;;;;;;30.87;43.63;97486.34;6124105;23;20048;-68
2021/08/05 08:10:27;;;;;;;0.60;0.30;;;;;;;30.76;43.93;97480.69;6123495;23;20112;-69
2021/08/05 08:12:53;;;;;;;0.17;0.17;;;;;;;30.87;43.72;97486.34;6125029;23;20047;-67
2021/08/05 08:15:23;;;;;;;0.45;0.28;;;;;;;31.07;43.09;97486.81;6124935;23;20038;-68
2021/08/05 08:17:48;;;;;;;0.15;0.13;;;;;;;31.21;42.89;97491.66;6124858;23;20356;-68
2021/08/05 08:20:14;;;;;;;0.10;0.10;;;;;;;31.19;43.04;97503.41;6125272;23;20020;-69
2021/08/05 08:22:40;;;;;;;2.50;0.47;;;;;;;31.10;43.03;97503.81;6124897;23;20002;-69
2021/08/05 08:32:32;;;;;;;0.30;0.30;;;;;;;30.93;43.57;97518.75;6111813;23;20029;-68
2021/08/05 08:34:59;;;;;;;0.20;0.20;;;;;;;30.63;43.80;97533.25;6124786;23;20009;-68
2021/08/05 08:37:25;;;;;;;0.38;0.22;;;;;;;30.30;44.65;97541.63;6125037;23;20014;-69
2021/08/05 08:39:51;;;;;;;0.30;0.30;;;;;;;30.00;45.31;97542.66;6124660;23;20010;-68
2021/08/05 08:42:18;;;;;;;0.77;0.40;;;;;;;29.79;45.38;97543.31;6124964;23;20037;-68
2021/08/05 08:44:44;;;;;;;0.15;0.13;;;;;;;29.66;45.70;97542.81;6125155;23;20037;-67
2021/08/05 08:47:11;;;;;;;1.75;1.08;;;;;;;29.59;45.68;97547.63;6125364;23;20014;-66
2021/08/05 08:49:38;;;;;;;0.25;0.25;;;;;;;29.49;45.90;97554.81;6124920;23;20459;-70
2021/08/05 08:52:05;;;;;;;0.70;0.70;;;;;;;29.35;46.28;97547.84;6125124;23;20041;-68
2021/08/05 08:54:32;;;;;;;0.20;0.20;;;;;;;29.23;46.32;97548.16;6098836;23;20017;-69
2021/08/05 08:56:59;;;;;;;0.47;0.43;;;;;;;29.06;46.55;97560.06;6124660;23;20093;-67
2021/08/05 08:59:25;;;;;;;1.10;0.40;;;;;;;29.00;46.54;97563.25;6125093;23;20010;-66
2021/08/05 09:01:51;;;;;;;1.05;0.55;;;;;;;29.06;46.29;97565.72;6124679;23;20021;-66
2021/08/05 09:04:19;;;;;;;0.52;0.52;;;;;;;29.29;45.90;97555.06;6124843;23;20440;-68
2021/08/05 09:06:48;;;;;;;1.25;0.52;;;;;;;29.67;45.27;97563.44;6124764;23;20089;-67
2021/08/05 09:09:14;;;;;;;2.78;0.60;;;;;;;30.09;44.27;97558.47;6124887;23;20022;-69
2021/08/05 09:12:19;;;;;;;0.52;0.50;;;;;;;30.36;43.85;97556.16;6122825;23;20064;-68
2021/08/05 09:15:28;;;;;;;0.13;0.13;;;;;;;30.49;43.57;97568.00;6123616;23;20014;-67
2021/08/05 09:18:48;;;;;;;0.60;0.60;;;;;;;30.77;43.29;97563.66;6124270;23;20354;-69
2021/08/05 09:22:09;;;;;;;0.20;0.20;;;;;;;30.78;43.28;97562.44;6124210;23;20017;-67
2021/08/05 09:25:15;;;;;;;0.28;0.28;;;;;;;30.61;43.61;97553.50;6123712;23;20065;-70
2021/08/05 09:35:13;;;;;;;0.00;0.00;;;;;;;30.38;43.58;97559.44;6121314;23;20024;-69
2021/08/05 09:38:14;;;;;;;0.30;0.30;;;;;;;30.44;43.59;97568.41;6093339;23;20544;-67
2021/08/05 09:41:25;;;;;;;0.28;0.28;;;;;;;30.66;43.10;97557.97;6123665;23;20455;-66
2021/08/05 10:04:54;;;;;;;0.30;0.30;;;;;;;30.40;43.48;97557.84;6109111;23;20116;-68
2021/08/05 11:10:14;;;;;;;0.10;0.10;;;;;;;30.20;41.50;97562.19;6082321;23;20033;-68
2021/08/05 11:12:51;;;;;;;1.40;0.68;;;;;;;30.13;41.72;97562.16;6113218;23;20022;-68
2021/08/05 11:15:25;;;;;;;0.10;0.10;;;;;;;30.08;41.62;97557.69;6123422;23;20062;-69
2021/08/05 11:18:18;;;;;;;0.32;0.32;;;;;;;29.87;41.92;97559.19;6123729;23;20355;-67
2021/08/05 11:20:46;;;;;;;0.20;0.20;;;;;;;29.65;42.35;97563.00;6124013;23;20013;-68
2021/08/05 11:25:58;;;;;;;0.43;0.43;;;;;;;29.19;42.91;97555.75;6124927;23;20022;-70
2021/08/05 11:28:31;;;;;;;0.10;0.10;;;;;;;28.99;43.24;97550.31;6125516;23;20014;-68
2021/08/05 11:31:00;;;;;;;0.10;0.10;;;;;;;28.86;43.53;97545.31;6144969;23;20038;-71
2021/08/05 11:33:41;;;;;;;0.63;0.63;;;;;;;28.82;43.60;97556.59;6125841;23;20010;-72
2021/08/05 11:36:20;;;;;;;0.38;0.20;;;;;;;28.78;43.62;97538.78;6124973;23;20041;-69
2021/08/05 11:39:01;;;;;;;0.30;0.30;;;;;;;28.78;43.69;97544.44;6125136;23;20010;-69
2021/08/05 11:41:56;;;;;;;0.20;0.20;;;;;;;28.78;43.70;97530.31;6124665;23;20010;-70
2021/08/05 11:44:58;;;;;;;0.20;0.20;;;;;;;28.65;44.06;97536.25;6122504;23;20014;-68
2021/08/05 11:47:36;;;;;;;0.40;0.40;;;;;;;28.51;44.52;97524.75;6048954;23;20025;-69
2021/08/05 11:50:06;;;;;;;0.20;0.20;;;;;;;28.42;44.69;97521.44;6125244;23;20014;-67
2021/08/05 11:52:36;;;;;;;0.15;0.15;;;;;;;28.31;45.10;97519.31;6124620;23;20010;-70
2021/08/05 11:55:07;;;;;;;0.43;0.40;;;;;;;28.20;45.22;97504.25;6125180;23;20013;-68
2021/08/05 11:57:42;;;;;;;0.30;0.30;;;;;;;28.21;45.22;97516.31;6124823;23;20097;-67
2021/08/05 12:00:13;;;;;;;0.17;0.17;;;;;;;28.19;45.28;97510.28;6125065;23;20089;-68
2021/08/05 12:02:40;;;;;;;0.22;0.22;;;;;;;28.21;45.28;97508.69;6100443;23;20046;-70
2021/08/05 12:05:07;;;;;;;0.20;0.20;;;;;;;28.23;45.31;97500.66;6126252;23;20085;-68
2021/08/05 12:07:47;;;;;;;1.35;0.45;;;;;;;28.21;45.37;97496.56;6126495;23;20018;-69
2021/08/05 12:10:27;;;;;;;0.43;0.25;;;;;;;28.02;45.82;97498.38;6125974;23;20024;-71
2021/08/05 12:12:56;;;;;;;0.50;0.50;;;;;;;27.90;46.11;97501.38;6126487;23;20022;-70
2021/08/05 12:15:33;;;;;;;0.10;0.10;;;;;;;27.82;46.41;97499.69;6126891;23;20085;-67
2021/08/05 12:18:05;;;;;;;0.20;0.20;;;;;;;27.69;46.76;97499.91;6125905;23;20017;-70
2021/08/05 12:20:34;;;;;;;0.10;0.10;;;;;;;27.59;46.67;97507.03;6126888;23;20021;-66
2021/08/05 12:23:18;;;;;;;0.40;0.20;;;;;;;27.48;47.06;97505.25;6126336;23;20092;-66
2021/08/05 12:26:01;;;;;;;0.10;0.10;;;;;;;27.39;47.21;97511.94;6126493;23;20017;-67
2021/08/05 12:28:33;;;;;;;0.10;0.10;;;;;;;27.26;47.66;97505.66;6126376;23;20089;-68
2021/08/05 12:31:04;;;;;;;0.17;0.17;;;;;;;27.17;47.81;97513.56;6126466;23;20016;-68
2021/08/05 12:33:41;;;;;;;0.73;0.55;;;;;;;27.14;47.51;97514.31;6126601;23;20020;-67
2021/08/05 12:36:14;;;;;;;0.30;0.30;;;;;;;27.16;47.56;97526.03;6126068;23;20041;-68
2021/08/05 12:38:56;;;;;;;0.47;0.20;;;;;;;27.27;47.59;97515.75;6126115;23;20096;-68
2021/08/05 12:41:25;;;;;;;0.30;0.30;;;;;;;27.33;47.44;97530.38;6122236;23;20018;-65
2021/08/05 12:43:57;;;;;;;0.52;0.52;;;;;;;27.34;47.14;97525.53;6126470;23;20166;-67
2021/08/05 12:46:24;;;;;;;0.20;0.20;;;;;;;27.32;47.45;97530.72;6125127;23;20014;-68
2021/08/05 12:48:57;;;;;;;0.40;0.40;;;;;;;27.27;47.95;97532.66;6123704;23;20009;-69
2021/08/05 12:51:26;;;;;;;0.88;0.80;;;;;;;27.24;47.76;97538.25;6126278;23;20018;-70
2021/08/05 12:53:52;;;;;;;0.60;0.60;;;;;;;27.17;47.87;97536.13;6126416;23;20439;-69
2021/08/05 12:56:38;;;;;;;0.57;0.30;;;;;;;27.12;47.97;97518.72;6125917;23;20014;-68
2021/08/05 12:59:04;;;;;;;0.63;0.32;;;;;;;26.99;48.53;97532.19;6126273;23;20021;-69
2021/08/05 13:01:30;;;;;;;0.20;0.20;;;;;;;26.91;48.43;97532.06;6125805;23;20017;-71
2021/08/05 13:03:56;;;;;;;0.50;0.30;;;;;;;26.87;48.67;97530.34;6100092;23;20461;-67
2021/08/05 13:06:22;;;;;;;0.20;0.20;;;;;;;26.85;49.05;97527.09;6126702;23;20451;-67
2021/08/05 13:08:52;;;;;;;0.43;0.43;;;;;;;26.77;48.96;97523.34;6125778;23;20019;-67
2021/08/05 13:11:35;;;;;;;0.32;0.32;;;;;;;26.67;49.44;97519.13;6125531;23;20010;-70
2021/08/05 13:14:01;;;;;;;0.38;0.28;;;;;;;26.61;49.22;97531.06;6126221;23;20021;-67
2021/08/05 13:16:35;;;;;;;0.10;0.10;;;;;;;26.58;49.55;97522.16;6125347;23;20018;-69
2021/08/05 13:19:13;;;;;;;0.28;0.28;;;;;;;26.58;49.47;97518.53;6125979;23;20443;-67
2021/08/05 13:21:44;;;;;;;0.70;0.60;;;;;;;26.55;49.58;97508.03;6126528;23;20009;-67
2021/08/05 13:24:13;;;;;;;0.93;0.90;;;;;;;26.47;49.94;97512.72;6125965;23;20014;-68
2021/08/05 13:26:39;;;;;;;0.70;0.50;;;;;;;26.35;50.15;97513.69;6125654;23;20069;-69